sensor_id;sensor_type;location;lat;lon;timestamp;P1;durP1;ratioP1;P2;durP2;ratioP2
6997;SDS011;3539;47.982;12.238;2024-01-15T00:01:49;18.87;;;10.67;;
6997;SDS011;3539;47.982;12.238;2024-01-15T00:04:15;16.63;;;8.70;;
6997;SDS011;3539;47.982;12.238;2024-01-15T00:06:42;21.43;;;9.33;;
6997;SDS011;3539;47.982;12.238;2024-01-15T00:09:09;19.97;;;9.47;;
6997;SDS011;3539;47.982;12.238;2024-01-15T00:11:36;17.27;;;9.20;;
6997;SDS011;3539;47.982;12.238;2024-01-15T00:14:03;16.63;;;8.17;;
6997;SDS011;3539;47.982;12.238;2024-01-15T00:16:29;17.00;;;9.07;;
6997;SDS011;3539;47.982;12.238;2024-01-15T00:18:58;16.57;;;9.67;;
6997;SDS011;3539;47.982;12.238;2024-01-15T00:21:24;20.03;;;9.70;;
6997;SDS011;3539;47.982;12.238;2024-01-15T00:23:52;17.80;;;9.67;;
6997;SDS011;3539;47.982;12.238;2024-01-15T00:26:19;18.57;;;8.77;;
6997;SDS011;3539;47.982;12.238;2024-01-15T00:28:46;16.60;;;8.80;;
6997;SDS011;3539;47.982;12.238;2024-01-15T00:31:12;16.33;;;8.80;;
6997;SDS011;3539;47.982;12.238;2024-01-15T00:33:39;17.10;;;9.00;;
6997;SDS011;3539;47.982;12.238;2024-01-15T00:36:07;18.63;;;9.40;;
6997;SDS011;3539;47.982;12.238;2024-01-15T00:38:34;17.13;;;9.00;;
6997;SDS011;3539;47.982;12.238;2024-01-15T00:41:01;16.20;;;9.10;;
6997;SDS011;3539;47.982;12.238;2024-01-15T00:43:28;13.97;;;9.13;;
6997;SDS011;3539;47.982;12.238;2024-01-15T00:45:55;16.23;;;9.37;;
6997;SDS011;3539;47.982;12.238;2024-01-15T00:48:22;16.67;;;9.27;;
6997;SDS011;3539;47.982;12.238;2024-01-15T00:50:48;20.13;;;9.87;;
6997;SDS011;3539;47.982;12.238;2024-01-15T00:53:18;20.43;;;9.87;;
6997;SDS011;3539;47.982;12.238;2024-01-15T00:55:45;16.60;;;9.20;;
6997;SDS011;3539;47.982;12.238;2024-01-15T00:58:12;18.50;;;9.23;;
6997;SDS011;3539;47.982;12.238;2024-01-15T01:00:38;18.17;;;9.57;;
6997;SDS011;3539;47.982;12.238;2024-01-15T01:03:05;16.93;;;8.93;;
6997;SDS011;3539;47.982;12.238;2024-01-15T01:05:32;13.57;;;9.00;;
6997;SDS011;3539;47.982;12.238;2024-01-15T01:07:59;19.30;;;8.83;;
6997;SDS011;3539;47.982;12.238;2024-01-15T01:10:27;16.30;;;8.70;;
6997;SDS011;3539;47.982;12.238;2024-01-15T01:12:55;15.70;;;8.33;;
6997;SDS011;3539;47.982;12.238;2024-01-15T01:15:22;16.70;;;8.33;;
6997;SDS011;3539;47.982;12.238;2024-01-15T01:17:49;15.67;;;9.10;;
6997;SDS011;3539;47.982;12.238;2024-01-15T01:20:16;12.97;;;6.83;;
6997;SDS011;3539;47.982;12.238;2024-01-15T01:22:43;10.83;;;6.93;;
6997;SDS011;3539;47.982;12.238;2024-01-15T01:25:10;12.30;;;6.30;;
6997;SDS011;3539;47.982;12.238;2024-01-15T01:27:38;12.27;;;5.53;;
6997;SDS011;3539;47.982;12.238;2024-01-15T01:30:05;10.53;;;5.77;;
6997;SDS011;3539;47.982;12.238;2024-01-15T01:32:32;12.00;;;5.10;;
6997;SDS011;3539;47.982;12.238;2024-01-15T01:34:59;9.07;;;4.87;;
6997;SDS011;3539;47.982;12.238;2024-01-15T01:37:26;7.47;;;5.17;;
6997;SDS011;3539;47.982;12.238;2024-01-15T01:39:53;8.17;;;4.93;;
6997;SDS011;3539;47.982;12.238;2024-01-15T01:42:19;8.00;;;4.40;;
6997;SDS011;3539;47.982;12.238;2024-01-15T01:44:47;6.40;;;4.43;;
6997;SDS011;3539;47.982;12.238;2024-01-15T01:47:14;9.47;;;4.77;;
6997;SDS011;3539;47.982;12.238;2024-01-15T01:49:41;9.77;;;5.03;;
6997;SDS011;3539;47.982;12.238;2024-01-15T01:52:08;9.23;;;5.67;;
6997;SDS011;3539;47.982;12.238;2024-01-15T01:54:36;10.53;;;5.23;;
6997;SDS011;3539;47.982;12.238;2024-01-15T01:57:03;12.43;;;5.60;;
6997;SDS011;3539;47.982;12.238;2024-01-15T01:59:31;11.33;;;5.93;;
6997;SDS011;3539;47.982;12.238;2024-01-15T02:02:01;9.77;;;5.23;;
6997;SDS011;3539;47.982;12.238;2024-01-15T02:04:29;12.83;;;5.60;;
6997;SDS011;3539;47.982;12.238;2024-01-15T02:06:56;10.63;;;5.90;;
6997;SDS011;3539;47.982;12.238;2024-01-15T02:09:22;10.00;;;6.33;;
6997;SDS011;3539;47.982;12.238;2024-01-15T02:11:48;11.80;;;5.37;;
6997;SDS011;3539;47.982;12.238;2024-01-15T02:14:15;11.40;;;6.40;;
6997;SDS011;3539;47.982;12.238;2024-01-15T02:16:42;12.77;;;6.73;;
6997;SDS011;3539;47.982;12.238;2024-01-15T02:19:15;12.10;;;6.00;;
6997;SDS011;3539;47.982;12.238;2024-01-15T02:21:43;9.20;;;5.83;;
6997;SDS011;3539;47.982;12.238;2024-01-15T02:24:11;11.50;;;6.73;;
6997;SDS011;3539;47.982;12.238;2024-01-15T02:26:38;15.27;;;7.83;;
6997;SDS011;3539;47.982;12.238;2024-01-15T02:29:05;11.63;;;6.57;;
6997;SDS011;3539;47.982;12.238;2024-01-15T02:31:33;13.63;;;7.00;;
6997;SDS011;3539;47.982;12.238;2024-01-15T02:34:00;15.00;;;7.77;;
6997;SDS011;3539;47.982;12.238;2024-01-15T02:36:27;14.20;;;7.43;;
6997;SDS011;3539;47.982;12.238;2024-01-15T02:38:53;14.03;;;7.23;;
6997;SDS011;3539;47.982;12.238;2024-01-15T02:41:22;11.53;;;7.20;;
6997;SDS011;3539;47.982;12.238;2024-01-15T02:43:48;13.17;;;6.77;;
6997;SDS011;3539;47.982;12.238;2024-01-15T02:46:15;12.40;;;7.67;;
6997;SDS011;3539;47.982;12.238;2024-01-15T02:48:42;12.37;;;6.87;;
6997;SDS011;3539;47.982;12.238;2024-01-15T02:51:09;11.80;;;6.87;;
6997;SDS011;3539;47.982;12.238;2024-01-15T02:53:35;10.27;;;6.10;;
6997;SDS011;3539;47.982;12.238;2024-01-15T02:56:02;10.80;;;6.23;;
6997;SDS011;3539;47.982;12.238;2024-01-15T02:58:31;10.63;;;6.50;;
6997;SDS011;3539;47.982;12.238;2024-01-15T03:00:58;8.97;;;5.17;;
6997;SDS011;3539;47.982;12.238;2024-01-15T03:03:25;13.00;;;5.80;;
6997;SDS011;3539;47.982;12.238;2024-01-15T03:05:51;10.07;;;5.70;;
6997;SDS011;3539;47.982;12.238;2024-01-15T03:08:18;10.63;;;5.63;;
6997;SDS011;3539;47.982;12.238;2024-01-15T03:10:45;11.63;;;5.10;;
6997;SDS011;3539;47.982;12.238;2024-01-15T03:13:12;7.53;;;4.77;;
6997;SDS011;3539;47.982;12.238;2024-01-15T03:15:40;8.83;;;5.27;;
6997;SDS011;3539;47.982;12.238;2024-01-15T03:18:07;7.83;;;4.60;;
6997;SDS011;3539;47.982;12.238;2024-01-15T03:20:34;8.80;;;5.10;;
6997;SDS011;3539;47.982;12.238;2024-01-15T03:23:00;6.93;;;4.20;;
6997;SDS011;3539;47.982;12.238;2024-01-15T03:25:27;8.93;;;5.30;;
6997;SDS011;3539;47.982;12.238;2024-01-15T03:27:54;10.03;;;5.20;;
6997;SDS011;3539;47.982;12.238;2024-01-15T03:30:21;10.83;;;5.27;;
6997;SDS011;3539;47.982;12.238;2024-01-15T03:32:49;6.87;;;5.07;;
6997;SDS011;3539;47.982;12.238;2024-01-15T03:35:16;9.43;;;5.10;;
6997;SDS011;3539;47.982;12.238;2024-01-15T03:37:43;7.80;;;4.37;;
6997;SDS011;3539;47.982;12.238;2024-01-15T03:40:10;6.77;;;4.30;;
6997;SDS011;3539;47.982;12.238;2024-01-15T03:42:37;8.60;;;4.97;;
6997;SDS011;3539;47.982;12.238;2024-01-15T03:45:05;9.40;;;4.73;;
6997;SDS011;3539;47.982;12.238;2024-01-15T03:47:32;11.63;;;5.27;;
6997;SDS011;3539;47.982;12.238;2024-01-15T03:50:00;7.57;;;4.40;;
6997;SDS011;3539;47.982;12.238;2024-01-15T03:52:27;6.90;;;3.43;;
6997;SDS011;3539;47.982;12.238;2024-01-15T03:54:53;6.00;;;3.77;;
6997;SDS011;3539;47.982;12.238;2024-01-15T03:57:20;6.53;;;3.93;;
6997;SDS011;3539;47.982;12.238;2024-01-15T03:59:47;6.73;;;4.17;;
6997;SDS011;3539;47.982;12.238;2024-01-15T04:02:14;7.80;;;4.53;;
6997;SDS011;3539;47.982;12.238;2024-01-15T04:04:40;7.23;;;3.93;;
6997;SDS011;3539;47.982;12.238;2024-01-15T04:07:09;6.17;;;3.90;;
6997;SDS011;3539;47.982;12.238;2024-01-15T04:09:36;7.23;;;3.73;;
6997;SDS011;3539;47.982;12.238;2024-01-15T04:12:03;7.87;;;3.70;;
6997;SDS011;3539;47.982;12.238;2024-01-15T04:14:30;6.33;;;3.77;;
6997;SDS011;3539;47.982;12.238;2024-01-15T04:16:57;5.90;;;3.37;;
6997;SDS011;3539;47.982;12.238;2024-01-15T04:19:24;6.37;;;3.60;;
6997;SDS011;3539;47.982;12.238;2024-01-15T04:21:50;5.23;;;3.63;;
6997;SDS011;3539;47.982;12.238;2024-01-15T04:24:19;5.73;;;3.37;;
6997;SDS011;3539;47.982;12.238;2024-01-15T04:26:45;5.80;;;3.90;;
6997;SDS011;3539;47.982;12.238;2024-01-15T04:29:12;5.57;;;3.77;;
6997;SDS011;3539;47.982;12.238;2024-01-15T04:31:39;5.20;;;3.47;;
6997;SDS011;3539;47.982;12.238;2024-01-15T04:34:06;7.20;;;4.03;;
6997;SDS011;3539;47.982;12.238;2024-01-15T04:36:38;5.60;;;3.63;;
6997;SDS011;3539;47.982;12.238;2024-01-15T04:39:05;5.40;;;3.23;;
6997;SDS011;3539;47.982;12.238;2024-01-15T04:41:33;7.43;;;3.90;;
6997;SDS011;3539;47.982;12.238;2024-01-15T04:44:00;5.00;;;3.40;;
6997;SDS011;3539;47.982;12.238;2024-01-15T04:46:27;5.50;;;3.30;;
6997;SDS011;3539;47.982;12.238;2024-01-15T04:48:54;5.37;;;3.27;;
6997;SDS011;3539;47.982;12.238;2024-01-15T04:51:20;6.33;;;3.73;;
6997;SDS011;3539;47.982;12.238;2024-01-15T04:53:47;5.90;;;3.60;;
6997;SDS011;3539;47.982;12.238;2024-01-15T04:56:14;4.43;;;3.17;;
6997;SDS011;3539;47.982;12.238;2024-01-15T04:58:42;6.73;;;5.43;;
6997;SDS011;3539;47.982;12.238;2024-01-15T05:01:09;4.17;;;3.00;;
6997;SDS011;3539;47.982;12.238;2024-01-15T05:03:36;7.23;;;3.70;;
6997;SDS011;3539;47.982;12.238;2024-01-15T05:06:03;5.83;;;3.73;;
6997;SDS011;3539;47.982;12.238;2024-01-15T05:08:30;6.83;;;3.57;;
6997;SDS011;3539;47.982;12.238;2024-01-15T05:10:57;6.77;;;3.63;;
6997;SDS011;3539;47.982;12.238;2024-01-15T05:13:24;6.50;;;3.50;;
6997;SDS011;3539;47.982;12.238;2024-01-15T05:15:52;5.70;;;3.47;;
6997;SDS011;3539;47.982;12.238;2024-01-15T05:18:19;3.53;;;2.67;;
6997;SDS011;3539;47.982;12.238;2024-01-15T05:20:45;4.23;;;3.13;;
6997;SDS011;3539;47.982;12.238;2024-01-15T05:23:12;7.53;;;3.90;;
6997;SDS011;3539;47.982;12.238;2024-01-15T05:25:39;5.43;;;3.67;;
6997;SDS011;3539;47.982;12.238;2024-01-15T05:28:06;5.67;;;3.27;;
6997;SDS011;3539;47.982;12.238;2024-01-15T05:30:33;6.30;;;3.73;;
6997;SDS011;3539;47.982;12.238;2024-01-15T05:33:01;5.57;;;3.37;;
6997;SDS011;3539;47.982;12.238;2024-01-15T05:35:28;7.23;;;3.80;;
6997;SDS011;3539;47.982;12.238;2024-01-15T05:37:55;4.50;;;3.43;;
6997;SDS011;3539;47.982;12.238;2024-01-15T05:40:21;7.53;;;3.80;;
6997;SDS011;3539;47.982;12.238;2024-01-15T05:42:48;6.37;;;3.67;;
6997;SDS011;3539;47.982;12.238;2024-01-15T05:45:15;7.07;;;4.20;;
6997;SDS011;3539;47.982;12.238;2024-01-15T05:47:42;5.63;;;3.23;;
6997;SDS011;3539;47.982;12.238;2024-01-15T05:50:11;6.10;;;3.93;;
6997;SDS011;3539;47.982;12.238;2024-01-15T05:52:38;6.57;;;3.73;;
6997;SDS011;3539;47.982;12.238;2024-01-15T05:55:05;7.13;;;3.53;;
6997;SDS011;3539;47.982;12.238;2024-01-15T05:57:32;5.83;;;3.40;;
6997;SDS011;3539;47.982;12.238;2024-01-15T05:59:59;6.00;;;3.50;;
6997;SDS011;3539;47.982;12.238;2024-01-15T06:02:26;6.63;;;3.30;;
6997;SDS011;3539;47.982;12.238;2024-01-15T06:04:53;6.37;;;3.83;;
6997;SDS011;3539;47.982;12.238;2024-01-15T06:07:22;7.87;;;3.37;;
6997;SDS011;3539;47.982;12.238;2024-01-15T06:09:49;29.27;;;10.00;;
6997;SDS011;3539;47.982;12.238;2024-01-15T06:12:15;29.70;;;11.80;;
6997;SDS011;3539;47.982;12.238;2024-01-15T06:14:42;13.80;;;6.73;;
6997;SDS011;3539;47.982;12.238;2024-01-15T06:17:09;14.23;;;6.10;;
6997;SDS011;3539;47.982;12.238;2024-01-15T06:19:36;7.33;;;4.37;;
6997;SDS011;3539;47.982;12.238;2024-01-15T06:22:03;6.80;;;4.60;;
6997;SDS011;3539;47.982;12.238;2024-01-15T06:24:31;7.17;;;6.13;;
6997;SDS011;3539;47.982;12.238;2024-01-15T06:26:58;4.20;;;3.23;;
6997;SDS011;3539;47.982;12.238;2024-01-15T06:29:25;6.07;;;3.53;;
6997;SDS011;3539;47.982;12.238;2024-01-15T06:31:52;4.53;;;3.20;;
6997;SDS011;3539;47.982;12.238;2024-01-15T06:34:19;5.13;;;3.43;;
6997;SDS011;3539;47.982;12.238;2024-01-15T06:36:46;4.43;;;2.93;;
6997;SDS011;3539;47.982;12.238;2024-01-15T06:39:12;5.17;;;3.27;;
6997;SDS011;3539;47.982;12.238;2024-01-15T06:41:41;7.83;;;3.50;;
6997;SDS011;3539;47.982;12.238;2024-01-15T06:44:09;5.73;;;3.10;;
6997;SDS011;3539;47.982;12.238;2024-01-15T06:46:36;3.33;;;2.63;;
6997;SDS011;3539;47.982;12.238;2024-01-15T06:49:03;6.33;;;2.90;;
6997;SDS011;3539;47.982;12.238;2024-01-15T06:51:29;5.37;;;3.17;;
6997;SDS011;3539;47.982;12.238;2024-01-15T06:53:56;5.90;;;3.17;;
6997;SDS011;3539;47.982;12.238;2024-01-15T06:56:23;4.53;;;3.00;;
6997;SDS011;3539;47.982;12.238;2024-01-15T06:58:51;5.67;;;3.23;;
6997;SDS011;3539;47.982;12.238;2024-01-15T07:01:18;7.20;;;3.83;;
6997;SDS011;3539;47.982;12.238;2024-01-15T07:03:45;7.90;;;3.50;;
6997;SDS011;3539;47.982;12.238;2024-01-15T07:06:12;7.33;;;3.73;;
6997;SDS011;3539;47.982;12.238;2024-01-15T07:08:39;6.60;;;4.00;;
6997;SDS011;3539;47.982;12.238;2024-01-15T07:11:06;8.13;;;4.50;;
6997;SDS011;3539;47.982;12.238;2024-01-15T07:13:33;10.03;;;7.23;;
6997;SDS011;3539;47.982;12.238;2024-01-15T07:16:01;7.07;;;4.57;;
6997;SDS011;3539;47.982;12.238;2024-01-15T07:18:28;5.47;;;3.80;;
6997;SDS011;3539;47.982;12.238;2024-01-15T07:20:55;5.50;;;3.63;;
6997;SDS011;3539;47.982;12.238;2024-01-15T07:23:22;4.40;;;3.60;;
6997;SDS011;3539;47.982;12.238;2024-01-15T07:25:48;7.80;;;3.50;;
6997;SDS011;3539;47.982;12.238;2024-01-15T07:28:15;6.60;;;3.43;;
6997;SDS011;3539;47.982;12.238;2024-01-15T07:30:42;6.50;;;3.67;;
6997;SDS011;3539;47.982;12.238;2024-01-15T07:33:11;5.37;;;3.67;;
6997;SDS011;3539;47.982;12.238;2024-01-15T07:35:38;6.97;;;3.20;;
6997;SDS011;3539;47.982;12.238;2024-01-15T07:38:05;7.20;;;3.43;;
6997;SDS011;3539;47.982;12.238;2024-01-15T07:40:32;6.30;;;3.40;;
6997;SDS011;3539;47.982;12.238;2024-01-15T07:42:58;5.63;;;3.80;;
6997;SDS011;3539;47.982;12.238;2024-01-15T07:45:25;5.97;;;3.77;;
6997;SDS011;3539;47.982;12.238;2024-01-15T07:47:52;139.53;;;37.80;;
6997;SDS011;3539;47.982;12.238;2024-01-15T07:50:20;78.60;;;44.40;;
6997;SDS011;3539;47.982;12.238;2024-01-15T07:52:47;33.73;;;24.17;;
6997;SDS011;3539;47.982;12.238;2024-01-15T07:55:14;10.33;;;6.57;;
6997;SDS011;3539;47.982;12.238;2024-01-15T07:57:40;11.03;;;5.57;;
6997;SDS011;3539;47.982;12.238;2024-01-15T08:00:08;11.40;;;5.77;;
6997;SDS011;3539;47.982;12.238;2024-01-15T08:02:36;9.37;;;5.63;;
6997;SDS011;3539;47.982;12.238;2024-01-15T08:05:03;9.43;;;4.90;;
6997;SDS011;3539;47.982;12.238;2024-01-15T08:07:31;8.20;;;5.00;;
6997;SDS011;3539;47.982;12.238;2024-01-15T08:09:58;7.17;;;4.90;;
6997;SDS011;3539;47.982;12.238;2024-01-15T08:12:24;7.20;;;4.60;;
6997;SDS011;3539;47.982;12.238;2024-01-15T08:14:51;7.13;;;4.90;;
6997;SDS011;3539;47.982;12.238;2024-01-15T08:17:18;9.70;;;4.93;;
6997;SDS011;3539;47.982;12.238;2024-01-15T08:19:45;6.73;;;4.77;;
6997;SDS011;3539;47.982;12.238;2024-01-15T08:22:11;8.47;;;4.77;;
6997;SDS011;3539;47.982;12.238;2024-01-15T08:24:40;7.27;;;4.97;;
6997;SDS011;3539;47.982;12.238;2024-01-15T08:27:06;9.37;;;4.23;;
6997;SDS011;3539;47.982;12.238;2024-01-15T08:29:33;11.03;;;6.00;;
6997;SDS011;3539;47.982;12.238;2024-01-15T08:32:00;10.80;;;6.80;;
6997;SDS011;3539;47.982;12.238;2024-01-15T08:34:27;8.23;;;5.43;;
6997;SDS011;3539;47.982;12.238;2024-01-15T08:36:54;9.13;;;5.47;;
6997;SDS011;3539;47.982;12.238;2024-01-15T08:39:20;10.03;;;5.83;;
6997;SDS011;3539;47.982;12.238;2024-01-15T08:41:49;7.47;;;5.07;;
6997;SDS011;3539;47.982;12.238;2024-01-15T08:44:15;13.83;;;10.80;;
6997;SDS011;3539;47.982;12.238;2024-01-15T08:46:43;9.60;;;6.70;;
6997;SDS011;3539;47.982;12.238;2024-01-15T08:49:09;10.60;;;6.13;;
6997;SDS011;3539;47.982;12.238;2024-01-15T08:51:36;11.27;;;10.07;;
6997;SDS011;3539;47.982;12.238;2024-01-15T08:54:04;12.67;;;6.93;;
6997;SDS011;3539;47.982;12.238;2024-01-15T08:56:32;8.97;;;5.90;;
6997;SDS011;3539;47.982;12.238;2024-01-15T08:59:00;7.87;;;5.23;;
6997;SDS011;3539;47.982;12.238;2024-01-15T09:01:26;8.87;;;5.20;;
6997;SDS011;3539;47.982;12.238;2024-01-15T09:03:54;9.93;;;5.63;;
6997;SDS011;3539;47.982;12.238;2024-01-15T09:06:21;11.20;;;6.33;;
6997;SDS011;3539;47.982;12.238;2024-01-15T09:08:47;10.10;;;5.70;;
6997;SDS011;3539;47.982;12.238;2024-01-15T09:11:14;14.47;;;5.93;;
6997;SDS011;3539;47.982;12.238;2024-01-15T09:13:41;7.77;;;5.50;;
6997;SDS011;3539;47.982;12.238;2024-01-15T09:16:09;8.93;;;5.67;;
6997;SDS011;3539;47.982;12.238;2024-01-15T09:18:36;9.10;;;6.03;;
6997;SDS011;3539;47.982;12.238;2024-01-15T09:21:03;10.07;;;5.73;;
6997;SDS011;3539;47.982;12.238;2024-01-15T09:23:30;13.07;;;5.87;;
6997;SDS011;3539;47.982;12.238;2024-01-15T09:25:57;8.90;;;5.50;;
6997;SDS011;3539;47.982;12.238;2024-01-15T09:28:24;8.00;;;5.53;;
6997;SDS011;3539;47.982;12.238;2024-01-15T09:30:50;10.80;;;5.97;;
6997;SDS011;3539;47.982;12.238;2024-01-15T09:33:17;10.17;;;5.93;;
6997;SDS011;3539;47.982;12.238;2024-01-15T09:35:44;12.87;;;5.70;;
6997;SDS011;3539;47.982;12.238;2024-01-15T09:38:11;8.93;;;5.90;;
6997;SDS011;3539;47.982;12.238;2024-01-15T09:40:38;14.00;;;7.00;;
6997;SDS011;3539;47.982;12.238;2024-01-15T09:43:06;47.80;;;20.67;;
6997;SDS011;3539;47.982;12.238;2024-01-15T09:45:33;25.80;;;11.33;;
6997;SDS011;3539;47.982;12.238;2024-01-15T09:48:00;14.33;;;8.60;;
6997;SDS011;3539;47.982;12.238;2024-01-15T09:50:28;11.70;;;7.40;;
6997;SDS011;3539;47.982;12.238;2024-01-15T09:52:55;10.67;;;5.70;;
6997;SDS011;3539;47.982;12.238;2024-01-15T09:55:23;7.63;;;4.93;;
6997;SDS011;3539;47.982;12.238;2024-01-15T09:57:49;10.97;;;5.87;;
6997;SDS011;3539;47.982;12.238;2024-01-15T10:00:17;13.77;;;6.80;;
6997;SDS011;3539;47.982;12.238;2024-01-15T10:02:44;9.77;;;5.50;;
6997;SDS011;3539;47.982;12.238;2024-01-15T10:05:11;11.37;;;6.60;;
6997;SDS011;3539;47.982;12.238;2024-01-15T10:07:39;17.20;;;14.10;;
6997;SDS011;3539;47.982;12.238;2024-01-15T10:10:06;20.57;;;9.67;;
6997;SDS011;3539;47.982;12.238;2024-01-15T10:12:33;28.73;;;12.40;;
6997;SDS011;3539;47.982;12.238;2024-01-15T10:15:01;17.97;;;9.17;;
6997;SDS011;3539;47.982;12.238;2024-01-15T10:17:29;10.50;;;5.90;;
6997;SDS011;3539;47.982;12.238;2024-01-15T10:19:56;41.70;;;18.43;;
6997;SDS011;3539;47.982;12.238;2024-01-15T10:22:23;10.57;;;6.37;;
6997;SDS011;3539;47.982;12.238;2024-01-15T10:24:51;8.30;;;4.93;;
6997;SDS011;3539;47.982;12.238;2024-01-15T10:27:17;8.60;;;4.50;;
6997;SDS011;3539;47.982;12.238;2024-01-15T10:29:44;6.53;;;4.50;;
6997;SDS011;3539;47.982;12.238;2024-01-15T10:32:11;8.27;;;5.67;;
6997;SDS011;3539;47.982;12.238;2024-01-15T10:34:38;6.90;;;4.47;;
6997;SDS011;3539;47.982;12.238;2024-01-15T10:37:07;6.93;;;4.20;;
6997;SDS011;3539;47.982;12.238;2024-01-15T10:39:34;7.93;;;4.80;;
6997;SDS011;3539;47.982;12.238;2024-01-15T10:42:02;8.50;;;6.67;;
6997;SDS011;3539;47.982;12.238;2024-01-15T10:44:29;6.37;;;4.17;;
6997;SDS011;3539;47.982;12.238;2024-01-15T10:46:56;5.30;;;3.47;;
6997;SDS011;3539;47.982;12.238;2024-01-15T10:49:23;7.03;;;4.30;;
6997;SDS011;3539;47.982;12.238;2024-01-15T10:51:52;7.00;;;6.00;;
6997;SDS011;3539;47.982;12.238;2024-01-15T10:54:19;6.77;;;5.30;;
6997;SDS011;3539;47.982;12.238;2024-01-15T10:56:48;4.23;;;2.97;;
6997;SDS011;3539;47.982;12.238;2024-01-15T10:59:17;3.80;;;2.90;;
6997;SDS011;3539;47.982;12.238;2024-01-15T11:01:45;4.13;;;2.73;;
6997;SDS011;3539;47.982;12.238;2024-01-15T11:04:12;4.97;;;3.13;;
6997;SDS011;3539;47.982;12.238;2024-01-15T11:06:42;5.53;;;3.17;;
6997;SDS011;3539;47.982;12.238;2024-01-15T11:09:10;4.43;;;2.60;;
6997;SDS011;3539;47.982;12.238;2024-01-15T11:11:40;3.83;;;2.70;;
6997;SDS011;3539;47.982;12.238;2024-01-15T11:14:07;4.13;;;2.63;;
6997;SDS011;3539;47.982;12.238;2024-01-15T11:16:54;4.03;;;2.93;;
6997;SDS011;3539;47.982;12.238;2024-01-15T11:19:22;5.40;;;3.87;;
6997;SDS011;3539;47.982;12.238;2024-01-15T11:21:49;4.37;;;2.80;;
6997;SDS011;3539;47.982;12.238;2024-01-15T11:24:34;7.03;;;2.77;;
6997;SDS011;3539;47.982;12.238;2024-01-15T11:27:02;3.90;;;2.73;;
6997;SDS011;3539;47.982;12.238;2024-01-15T11:29:30;4.13;;;2.70;;
6997;SDS011;3539;47.982;12.238;2024-01-15T11:32:06;4.17;;;2.50;;
6997;SDS011;3539;47.982;12.238;2024-01-15T11:37:27;6.07;;;2.63;;
6997;SDS011;3539;47.982;12.238;2024-01-15T11:39:55;4.20;;;2.63;;
6997;SDS011;3539;47.982;12.238;2024-01-15T11:42:22;3.93;;;2.87;;
6997;SDS011;3539;47.982;12.238;2024-01-15T11:44:49;4.03;;;2.70;;
6997;SDS011;3539;47.982;12.238;2024-01-15T11:50:08;4.70;;;3.87;;
6997;SDS011;3539;47.982;12.238;2024-01-15T11:52:36;4.97;;;2.73;;
6997;SDS011;3539;47.982;12.238;2024-01-15T11:55:07;3.80;;;2.20;;
6997;SDS011;3539;47.982;12.238;2024-01-15T11:57:40;3.87;;;2.77;;
6997;SDS011;3539;47.982;12.238;2024-01-15T12:00:09;4.77;;;3.10;;
6997;SDS011;3539;47.982;12.238;2024-01-15T12:02:39;4.97;;;3.30;;
6997;SDS011;3539;47.982;12.238;2024-01-15T12:05:07;5.27;;;4.50;;
6997;SDS011;3539;47.982;12.238;2024-01-15T12:07:34;7.50;;;5.00;;
6997;SDS011;3539;47.982;12.238;2024-01-15T12:10:01;6.43;;;5.13;;
6997;SDS011;3539;47.982;12.238;2024-01-15T12:12:30;6.03;;;3.40;;
6997;SDS011;3539;47.982;12.238;2024-01-15T12:15:04;10.43;;;5.37;;
6997;SDS011;3539;47.982;12.238;2024-01-15T12:17:31;7.40;;;3.97;;
6997;SDS011;3539;47.982;12.238;2024-01-15T12:19:59;6.23;;;5.10;;
6997;SDS011;3539;47.982;12.238;2024-01-15T12:22:26;3.87;;;2.67;;
6997;SDS011;3539;47.982;12.238;2024-01-15T12:24:53;5.73;;;2.87;;
6997;SDS011;3539;47.982;12.238;2024-01-15T12:27:20;4.80;;;4.00;;
6997;SDS011;3539;47.982;12.238;2024-01-15T12:29:47;4.03;;;2.87;;
6997;SDS011;3539;47.982;12.238;2024-01-15T12:32:14;4.90;;;3.20;;
6997;SDS011;3539;47.982;12.238;2024-01-15T12:34:40;6.60;;;2.80;;
6997;SDS011;3539;47.982;12.238;2024-01-15T12:37:08;4.20;;;2.73;;
6997;SDS011;3539;47.982;12.238;2024-01-15T12:39:36;6.13;;;3.17;;
6997;SDS011;3539;47.982;12.238;2024-01-15T12:42:03;3.93;;;2.63;;
6997;SDS011;3539;47.982;12.238;2024-01-15T12:44:30;9.77;;;4.23;;
6997;SDS011;3539;47.982;12.238;2024-01-15T12:46:57;10.37;;;6.10;;
6997;SDS011;3539;47.982;12.238;2024-01-15T12:49:24;4.40;;;2.83;;
6997;SDS011;3539;47.982;12.238;2024-01-15T12:51:52;5.67;;;3.10;;
6997;SDS011;3539;47.982;12.238;2024-01-15T12:54:20;5.00;;;4.50;;
6997;SDS011;3539;47.982;12.238;2024-01-15T12:56:47;4.43;;;3.00;;
6997;SDS011;3539;47.982;12.238;2024-01-15T12:59:14;5.57;;;3.20;;
6997;SDS011;3539;47.982;12.238;2024-01-15T13:01:40;5.77;;;3.30;;
6997;SDS011;3539;47.982;12.238;2024-01-15T13:04:07;4.10;;;2.90;;
6997;SDS011;3539;47.982;12.238;2024-01-15T13:06:34;4.03;;;2.87;;
6997;SDS011;3539;47.982;12.238;2024-01-15T13:09:02;4.20;;;2.60;;
6997;SDS011;3539;47.982;12.238;2024-01-15T13:11:31;4.27;;;3.30;;
6997;SDS011;3539;47.982;12.238;2024-01-15T13:13:58;4.23;;;2.90;;
6997;SDS011;3539;47.982;12.238;2024-01-15T13:16:25;4.27;;;2.90;;
6997;SDS011;3539;47.982;12.238;2024-01-15T13:18:54;4.43;;;3.60;;
6997;SDS011;3539;47.982;12.238;2024-01-15T13:21:21;4.63;;;2.80;;
6997;SDS011;3539;47.982;12.238;2024-01-15T13:23:48;11.67;;;5.07;;
6997;SDS011;3539;47.982;12.238;2024-01-15T13:26:15;4.10;;;3.70;;
6997;SDS011;3539;47.982;12.238;2024-01-15T13:28:44;3.93;;;2.43;;
6997;SDS011;3539;47.982;12.238;2024-01-15T13:31:11;2.50;;;2.00;;
6997;SDS011;3539;47.982;12.238;2024-01-15T13:33:38;3.53;;;2.30;;
6997;SDS011;3539;47.982;12.238;2024-01-15T13:36:05;3.20;;;2.90;;
6997;SDS011;3539;47.982;12.238;2024-01-15T13:38:35;3.43;;;2.97;;
6997;SDS011;3539;47.982;12.238;2024-01-15T13:41:03;3.80;;;2.77;;
6997;SDS011;3539;47.982;12.238;2024-01-15T13:43:31;6.80;;;3.70;;
6997;SDS011;3539;47.982;12.238;2024-01-15T13:45:59;9.53;;;5.57;;
6997;SDS011;3539;47.982;12.238;2024-01-15T13:48:29;4.13;;;2.90;;
6997;SDS011;3539;47.982;12.238;2024-01-15T13:50:56;2.57;;;1.90;;
6997;SDS011;3539;47.982;12.238;2024-01-15T13:53:24;12.13;;;6.50;;
6997;SDS011;3539;47.982;12.238;2024-01-15T13:55:51;8.10;;;7.20;;
6997;SDS011;3539;47.982;12.238;2024-01-15T13:58:18;5.40;;;3.00;;
6997;SDS011;3539;47.982;12.238;2024-01-15T14:00:46;11.50;;;6.10;;
6997;SDS011;3539;47.982;12.238;2024-01-15T14:03:15;3.80;;;2.73;;
6997;SDS011;3539;47.982;12.238;2024-01-15T14:05:41;11.73;;;10.17;;
6997;SDS011;3539;47.982;12.238;2024-01-15T14:08:08;4.70;;;4.30;;
6997;SDS011;3539;47.982;12.238;2024-01-15T14:10:35;3.00;;;2.00;;
6997;SDS011;3539;47.982;12.238;2024-01-15T14:13:02;2.07;;;1.87;;
6997;SDS011;3539;47.982;12.238;2024-01-15T14:15:29;2.80;;;2.47;;
6997;SDS011;3539;47.982;12.238;2024-01-15T14:17:56;3.20;;;2.90;;
6997;SDS011;3539;47.982;12.238;2024-01-15T14:20:25;2.57;;;2.37;;
6997;SDS011;3539;47.982;12.238;2024-01-15T14:22:52;3.37;;;2.40;;
6997;SDS011;3539;47.982;12.238;2024-01-15T14:25:19;2.97;;;2.67;;
6997;SDS011;3539;47.982;12.238;2024-01-15T14:27:46;3.07;;;2.67;;
6997;SDS011;3539;47.982;12.238;2024-01-15T14:30:13;2.90;;;2.60;;
6997;SDS011;3539;47.982;12.238;2024-01-15T14:32:41;3.80;;;2.90;;
6997;SDS011;3539;47.982;12.238;2024-01-15T14:35:08;2.87;;;2.47;;
6997;SDS011;3539;47.982;12.238;2024-01-15T14:37:37;3.10;;;2.80;;
6997;SDS011;3539;47.982;12.238;2024-01-15T14:40:04;3.20;;;2.70;;
6997;SDS011;3539;47.982;12.238;2024-01-15T14:42:33;2.83;;;2.10;;
6997;SDS011;3539;47.982;12.238;2024-01-15T14:45:00;2.03;;;1.80;;
6997;SDS011;3539;47.982;12.238;2024-01-15T14:47:28;4.07;;;3.10;;
6997;SDS011;3539;47.982;12.238;2024-01-15T14:49:54;3.73;;;3.03;;
6997;SDS011;3539;47.982;12.238;2024-01-15T14:52:22;6.57;;;5.77;;
6997;SDS011;3539;47.982;12.238;2024-01-15T14:54:51;14.70;;;12.20;;
6997;SDS011;3539;47.982;12.238;2024-01-15T14:57:17;6.63;;;4.27;;
6997;SDS011;3539;47.982;12.238;2024-01-15T14:59:44;4.17;;;2.80;;
6997;SDS011;3539;47.982;12.238;2024-01-15T15:02:11;4.10;;;2.40;;